createdAt,value
2018-06-03T00:02:01.201Z,19.48
2018-06-03T00:04:28.729Z,19.47
2018-06-03T00:06:56.273Z,19.51
2018-06-03T00:09:23.803Z,19.33
2018-06-03T00:11:51.356Z,19.35
2018-06-03T00:14:18.875Z,19.33
2018-06-03T00:16:47.061Z,19.19
2018-06-03T00:19:14.596Z,19.17
2018-06-03T00:21:42.948Z,19.13
2018-06-03T00:24:10.702Z,18.95
2018-06-03T00:26:38.217Z,18.86
2018-06-03T00:29:06.522Z,18.93
2018-06-03T00:31:34.080Z,18.91
2018-06-03T00:34:01.600Z,18.87
2018-06-03T00:36:41.298Z,19.00
2018-06-03T00:39:08.820Z,18.92
2018-06-03T00:41:36.357Z,18.92
2018-06-03T00:44:03.892Z,18.93
2018-06-03T00:46:31.411Z,18.93
2018-06-03T00:48:58.967Z,18.89
2018-06-03T00:51:26.503Z,19.01
2018-06-03T00:53:54.037Z,18.83
2018-06-03T00:56:33.417Z,18.75
2018-06-03T00:59:00.947Z,18.90
2018-06-03T01:01:28.528Z,18.88
2018-06-03T01:03:56.051Z,18.75
2018-06-03T01:06:23.642Z,18.72
2018-06-03T01:08:51.176Z,18.82
2018-06-03T01:11:18.700Z,18.84
2018-06-03T01:13:47.606Z,18.66
2018-06-03T01:16:15.132Z,18.68
2018-06-03T01:18:42.684Z,18.76
2018-06-03T01:21:10.213Z,18.83
2018-06-03T01:23:37.924Z,18.76
2018-06-03T01:26:05.463Z,18.71
2018-06-03T01:28:32.980Z,18.63
2018-06-03T01:31:00.537Z,18.59
2018-06-03T01:33:28.055Z,18.54
2018-06-03T01:35:55.765Z,18.39
2018-06-03T01:38:23.293Z,18.45
2018-06-03T01:40:50.844Z,18.40
2018-06-03T01:43:18.443Z,18.46
2018-06-03T01:46:18.856Z,17.96
2018-06-03T01:48:47.693Z,18.09
2018-06-03T01:51:16.780Z,17.86
2018-06-03T01:53:45.652Z,17.99
2018-06-03T01:56:14.382Z,17.92
2018-06-03T01:58:43.529Z,17.94
2018-06-03T02:01:12.472Z,17.87
2018-06-03T02:03:41.127Z,17.83
2018-06-03T02:06:09.985Z,17.80
2018-06-03T02:08:38.789Z,17.68
2018-06-03T02:11:07.653Z,17.71
2018-06-03T02:13:36.441Z,17.76
2018-06-03T02:16:05.356Z,17.78
2018-06-03T02:18:34.140Z,17.65
2018-06-03T02:21:02.904Z,17.61
2018-06-03T02:23:31.823Z,17.68
2018-06-03T02:26:00.588Z,17.57
2018-06-03T02:28:29.468Z,17.60
2018-06-03T02:30:58.192Z,17.62
2018-06-03T02:33:27.001Z,17.45
2018-06-03T02:35:55.868Z,17.50
2018-06-03T02:38:24.836Z,17.30
2018-06-03T02:40:53.675Z,17.45
2018-06-03T02:43:22.535Z,17.44
2018-06-03T02:45:51.800Z,17.38
2018-06-03T02:48:21.453Z,17.37
2018-06-03T02:50:50.210Z,17.33
2018-06-03T02:53:19.368Z,17.26
2018-06-03T02:55:48.145Z,17.22
2018-06-03T02:58:17.088Z,17.27
2018-06-03T03:00:45.852Z,17.29
2018-06-03T03:03:15.696Z,17.21
2018-06-03T03:05:45.209Z,17.19
2018-06-03T03:08:13.936Z,17.24
2018-06-03T03:10:43.601Z,17.22
2018-06-03T03:13:13.300Z,17.36
2018-06-03T03:15:42.039Z,17.39
2018-06-03T03:18:10.987Z,17.48
2018-06-03T03:20:39.771Z,17.31
2018-06-03T03:23:08.560Z,17.26
2018-06-03T03:25:37.272Z,17.40
2018-06-03T03:28:06.130Z,17.35
2018-06-03T03:30:34.986Z,17.19
2018-06-03T03:33:03.813Z,17.04
2018-06-03T03:35:32.609Z,17.10
2018-06-03T03:38:01.741Z,17.27
2018-06-03T03:40:30.596Z,17.14
2018-06-03T03:42:59.661Z,17.22
2018-06-03T03:45:29.816Z,16.97
2018-06-03T03:47:58.604Z,16.77
2018-06-03T03:50:27.459Z,16.72
2018-06-03T03:52:57.189Z,16.80
2018-06-03T03:55:26.013Z,16.90
2018-06-03T03:57:54.913Z,16.86
2018-06-03T04:00:24.445Z,17.07
2018-06-03T04:02:53.216Z,17.33
2018-06-03T04:05:21.960Z,17.45
2018-06-03T04:07:50.746Z,17.51
2018-06-03T04:10:19.625Z,17.63
2018-06-03T04:12:49.004Z,17.76
2018-06-03T04:15:17.761Z,17.84
2018-06-03T04:17:46.503Z,17.94
2018-06-03T04:20:15.221Z,18.00
2018-06-03T04:22:44.084Z,17.92
2018-06-03T04:25:12.915Z,17.90
2018-06-03T04:27:41.755Z,17.88
2018-06-03T04:30:10.456Z,17.88
2018-06-03T04:32:39.516Z,17.87
2018-06-03T04:35:08.572Z,17.96
2018-06-03T04:37:37.794Z,17.96
2018-06-03T04:40:06.569Z,18.10
2018-06-03T04:42:35.453Z,17.99
2018-06-03T04:45:04.424Z,17.99
2018-06-03T04:47:33.950Z,18.06
2018-06-03T04:50:03.026Z,18.21
2018-06-03T04:52:32.498Z,18.18
2018-06-03T04:55:02.242Z,18.23
2018-06-03T04:57:31.721Z,18.18
2018-06-03T05:00:00.823Z,18.38
2018-06-03T05:02:29.572Z,18.51
2018-06-03T05:04:59.952Z,18.58
2018-06-03T05:07:28.643Z,18.67
2018-06-03T05:09:57.504Z,18.78
2018-06-03T05:12:26.293Z,18.84
2018-06-03T05:14:55.244Z,19.08
2018-06-03T05:17:24.034Z,19.24
2018-06-03T05:19:53.221Z,19.28
2018-06-03T05:22:22.009Z,19.25
2018-06-03T05:24:50.849Z,19.28
2018-06-03T05:27:19.737Z,19.39
2018-06-03T05:29:48.525Z,19.72
2018-06-03T05:32:17.788Z,20.01
2018-06-03T05:34:46.708Z,20.12
2018-06-03T05:37:15.404Z,20.24
2018-06-03T05:39:44.378Z,20.33
2018-06-03T05:42:13.184Z,20.47
2018-06-03T05:44:42.099Z,20.64
2018-06-03T05:47:10.968Z,21.02
2018-06-03T05:49:39.699Z,21.26
2018-06-03T05:52:08.464Z,21.46
2018-06-03T05:54:37.224Z,21.57
2018-06-03T05:57:05.980Z,21.84
2018-06-03T05:59:34.787Z,22.04
2018-06-03T06:02:03.595Z,22.23
2018-06-03T06:04:33.231Z,22.36
2018-06-03T06:07:01.884Z,22.60
2018-06-03T06:09:30.968Z,22.71
2018-06-03T06:11:59.769Z,22.54
2018-06-03T06:14:28.573Z,22.72
2018-06-03T06:16:57.327Z,22.83
2018-06-03T06:19:25.968Z,22.76
2018-06-03T06:21:55.200Z,23.13
2018-06-03T06:24:24.013Z,23.28
2018-06-03T06:26:52.704Z,23.65
2018-06-03T06:29:21.520Z,23.39
2018-06-03T06:31:50.380Z,23.89
2018-06-03T06:34:19.453Z,24.04
2018-06-03T06:36:48.208Z,24.13
2018-06-03T06:39:17.160Z,24.03
2018-06-03T06:41:45.964Z,24.12
2018-06-03T06:44:14.589Z,24.10
2018-06-03T06:46:43.704Z,23.86
2018-06-03T06:49:13.484Z,23.71
2018-06-03T06:51:42.221Z,23.67
2018-06-03T06:54:11.148Z,23.64
2018-06-03T06:56:40.008Z,23.68
2018-06-03T06:59:08.976Z,24.28
2018-06-03T07:01:37.685Z,25.27
2018-06-03T07:04:06.480Z,26.17
2018-06-03T07:06:35.302Z,26.37
2018-06-03T07:09:05.588Z,26.79
2018-06-03T07:11:34.452Z,27.51
2018-06-03T07:14:03.197Z,28.00
2018-06-03T07:16:31.953Z,28.54
2018-06-03T07:19:01.448Z,29.10
2018-06-03T07:21:30.252Z,28.90
2018-06-03T07:23:59.069Z,29.14
2018-06-03T07:26:27.950Z,28.89
2018-06-03T07:28:56.898Z,28.25
2018-06-03T07:31:25.787Z,27.81
2018-06-03T07:33:54.848Z,27.27
2018-06-03T07:36:23.619Z,26.47
2018-06-03T07:38:52.492Z,26.97
2018-06-03T07:41:21.332Z,27.08
2018-06-03T07:43:50.156Z,26.97
2018-06-03T07:46:19.042Z,27.36
2018-06-03T07:48:48.008Z,27.96
2018-06-03T07:51:17.191Z,28.51
2018-06-03T07:53:46.064Z,28.87
2018-06-03T07:56:14.852Z,29.35
2018-06-03T07:58:44.114Z,29.84
2018-06-03T08:01:13.200Z,30.06
2018-06-03T08:03:41.999Z,30.06
2018-06-03T08:06:10.764Z,30.07
2018-06-03T08:08:40.007Z,30.14
2018-06-03T08:11:09.897Z,30.24
2018-06-03T08:13:39.256Z,30.20
2018-06-03T08:16:08.091Z,30.23
2018-06-03T08:18:37.331Z,30.51
2018-06-03T08:21:06.159Z,30.53
2018-06-03T08:23:34.944Z,30.56
2018-06-03T08:26:06.520Z,30.54
2018-06-03T08:28:35.224Z,30.24
2018-06-03T08:31:04.000Z,30.61
2018-06-03T08:33:33.513Z,30.84
2018-06-03T08:36:02.293Z,31.04
2018-06-03T08:38:32.069Z,30.81
2018-06-03T08:41:01.705Z,30.84
2018-06-03T08:43:30.391Z,31.42
2018-06-03T08:46:00.122Z,31.87
2018-06-03T08:48:28.784Z,32.02
2018-06-03T08:50:57.628Z,31.48
2018-06-03T08:53:26.461Z,31.85
2018-06-03T08:55:56.229Z,32.36
2018-06-03T08:58:25.498Z,32.74
2018-06-03T09:00:54.695Z,33.72
2018-06-03T09:03:23.774Z,32.62
2018-06-03T09:05:52.560Z,31.96
2018-06-03T09:08:21.343Z,33.00
2018-06-03T09:10:50.921Z,33.98
2018-06-03T09:13:19.841Z,33.82
2018-06-03T09:15:48.731Z,32.95
2018-06-03T09:18:17.785Z,34.02
2018-06-03T09:20:46.513Z,34.50
2018-06-03T09:23:15.348Z,34.49
2018-06-03T09:25:44.287Z,34.24
2018-06-03T09:28:13.734Z,34.52
2018-06-03T09:30:46.304Z,34.57
2018-06-03T09:33:16.011Z,35.70
2018-06-03T09:35:45.265Z,36.05
2018-06-03T09:38:14.550Z,35.96
2018-06-03T09:40:43.686Z,36.05
2018-06-03T09:43:12.654Z,36.82
2018-06-03T09:45:41.645Z,37.94
2018-06-03T09:48:10.622Z,37.53
2018-06-03T09:50:39.456Z,38.64
2018-06-03T09:53:08.493Z,38.53
2018-06-03T09:55:37.751Z,38.87
2018-06-03T09:58:07.045Z,39.18
2018-06-03T10:00:36.805Z,40.69
2018-06-03T10:03:09.171Z,40.09
2018-06-03T10:05:38.256Z,41.19
2018-06-03T10:08:08.636Z,42.58
2018-06-03T10:10:37.598Z,43.70
2018-06-03T10:13:06.619Z,43.00
2018-06-03T10:15:35.620Z,42.75
2018-06-03T10:18:04.232Z,42.54
2018-06-03T10:20:33.667Z,42.09
2018-06-03T10:23:02.461Z,42.34
2018-06-03T10:25:31.690Z,42.37
2018-06-03T10:28:00.567Z,42.16
2018-06-03T10:30:29.980Z,41.26
2018-06-03T10:32:59.415Z,40.37
2018-06-03T10:35:28.349Z,41.94
2018-06-03T10:37:57.676Z,42.37
2018-06-03T10:40:26.996Z,42.51
2018-06-03T10:42:56.301Z,44.11
2018-06-03T10:45:25.700Z,42.31
2018-06-03T10:47:55.052Z,43.11
2018-06-03T10:50:24.299Z,43.08
2018-06-03T10:52:53.174Z,43.27
2018-06-03T10:55:22.552Z,43.55
2018-06-03T10:57:51.784Z,44.30
2018-06-03T11:00:20.772Z,44.95
2018-06-03T11:02:49.742Z,45.06
2018-06-03T11:05:18.546Z,46.63
2018-06-03T11:07:49.440Z,46.98
2018-06-03T11:10:19.041Z,45.51
2018-06-03T11:12:48.435Z,46.35
2018-06-03T11:15:17.606Z,46.06
2018-06-03T11:17:47.215Z,44.82
2018-06-03T11:20:16.636Z,45.63
2018-06-03T11:22:46.391Z,45.01
2018-06-03T11:25:15.329Z,44.52
2018-06-03T11:27:44.266Z,44.98
2018-06-03T11:30:14.021Z,45.42
2018-06-03T11:35:25.752Z,45.18
2018-06-03T11:37:55.123Z,46.22
2018-06-03T11:40:24.049Z,45.75
2018-06-03T11:42:52.957Z,43.74
2018-06-03T11:45:22.592Z,42.31
2018-06-03T11:47:51.973Z,43.18
2018-06-03T11:50:20.848Z,42.81
2018-06-03T11:52:50.145Z,41.62
2018-06-03T11:55:33.736Z,41.00
2018-06-03T11:58:42.812Z,41.36
2018-06-03T12:01:15.909Z,42.34
2018-06-03T12:03:45.700Z,44.57
2018-06-03T12:06:14.461Z,44.66
2018-06-03T12:08:43.192Z,45.13
2018-06-03T12:11:12.076Z,44.71
2018-06-03T12:13:40.825Z,43.63
2018-06-03T12:16:10.260Z,42.41
2018-06-03T12:18:39.376Z,42.09
2018-06-03T12:21:07.968Z,42.03
2018-06-03T12:23:36.656Z,41.93
2018-06-03T12:26:05.468Z,41.46
2018-06-03T12:28:34.630Z,41.26
2018-06-03T12:31:03.271Z,41.12
2018-06-03T12:33:32.100Z,40.22
2018-06-03T12:36:00.873Z,40.69
2018-06-03T12:38:29.730Z,38.89
2018-06-03T12:40:58.773Z,39.20
2018-06-03T12:43:29.533Z,40.40
2018-06-03T12:45:58.572Z,41.74
2018-06-03T12:48:28.226Z,42.00
2018-06-03T12:50:57.014Z,42.10
2018-06-03T12:53:27.415Z,41.81
2018-06-03T12:55:56.421Z,42.09
2018-06-03T12:58:25.380Z,41.19
2018-06-03T13:00:54.714Z,39.42
2018-06-03T13:03:23.342Z,39.44
2018-06-03T13:05:51.973Z,39.70
2018-06-03T13:08:20.560Z,41.11
2018-06-03T13:10:49.428Z,41.19
2018-06-03T13:13:18.317Z,41.03
2018-06-03T13:15:47.666Z,41.02
2018-06-03T13:18:16.410Z,41.07
2018-06-03T13:20:46.219Z,40.43
2018-06-03T13:23:15.400Z,41.08
2018-06-03T13:25:44.719Z,39.66
2018-06-03T13:28:14.885Z,40.09
2018-06-03T13:30:44.193Z,39.23
2018-06-03T13:33:13.324Z,40.92
2018-06-03T13:35:43.093Z,40.64
2018-06-03T13:38:15.803Z,41.01
2018-06-03T13:40:45.028Z,39.24
2018-06-03T13:43:14.822Z,40.22
2018-06-03T13:45:43.990Z,40.88
2018-06-03T13:48:13.211Z,41.21
2018-06-03T13:50:43.409Z,41.59
2018-06-03T13:53:12.832Z,42.71
2018-06-03T13:55:42.314Z,42.68
2018-06-03T13:58:11.529Z,42.65
2018-06-03T14:00:41.609Z,43.41
2018-06-03T14:03:11.655Z,42.68
2018-06-03T14:05:41.138Z,41.93
2018-06-03T14:08:10.564Z,42.00
2018-06-03T14:10:40.301Z,42.29
2018-06-03T14:13:10.241Z,42.31
2018-06-03T14:15:40.086Z,42.19
2018-06-03T14:18:09.188Z,42.39
2018-06-03T14:20:38.933Z,42.28
2018-06-03T14:23:09.349Z,42.68
2018-06-03T14:25:39.601Z,41.86
2018-06-03T14:28:11.227Z,40.95
2018-06-03T14:30:41.554Z,41.82
2018-06-03T14:33:11.406Z,40.81
2018-06-03T14:35:40.643Z,39.92
2018-06-03T14:38:10.448Z,39.11
2018-06-03T14:40:39.759Z,37.86
2018-06-03T14:43:09.277Z,37.04
2018-06-03T14:45:38.758Z,36.39
2018-06-03T14:48:08.787Z,35.78
2018-06-03T14:50:38.102Z,35.57
2018-06-03T14:53:07.229Z,35.74
2018-06-03T14:55:36.808Z,36.17
2018-06-03T14:58:05.697Z,35.70
2018-06-03T15:00:34.764Z,36.10
2018-06-03T15:03:03.725Z,36.11
2018-06-03T15:05:32.710Z,35.97
2018-06-03T15:08:01.828Z,35.84
2018-06-03T15:10:33.296Z,35.36
2018-06-03T15:13:04.577Z,34.94
2018-06-03T15:15:34.718Z,34.88
2018-06-03T15:18:04.213Z,34.47
2018-06-03T15:20:34.506Z,33.52
2018-06-03T15:23:04.274Z,33.61
2018-06-03T15:25:35.667Z,33.88
2018-06-03T15:28:05.891Z,33.63
2018-06-03T15:30:35.635Z,33.44
2018-06-03T15:33:05.884Z,33.14
2018-06-03T15:35:35.639Z,32.97
2018-06-03T15:38:05.522Z,31.95
2018-06-03T15:40:35.240Z,32.45
2018-06-03T15:43:04.626Z,32.32
2018-06-03T15:45:33.979Z,32.32
2018-06-03T15:48:03.121Z,32.16
2018-06-03T15:50:33.528Z,31.54
2018-06-03T15:53:03.332Z,31.94
2018-06-03T15:55:33.166Z,31.29
2018-06-03T15:58:02.473Z,31.32
2018-06-03T16:00:31.656Z,31.11
2018-06-03T16:03:00.876Z,31.05
2018-06-03T16:05:30.645Z,31.20
2018-06-03T16:08:00.733Z,31.21
2018-06-03T16:10:29.996Z,30.84
2018-06-03T16:12:59.697Z,30.93
2018-06-03T16:15:28.475Z,31.30
2018-06-03T16:17:57.841Z,31.33
2018-06-03T16:20:27.505Z,31.26
2018-06-03T16:22:56.825Z,31.18
2018-06-03T16:25:25.868Z,30.77
2018-06-03T16:27:55.502Z,30.62
2018-06-03T16:30:24.649Z,30.38
2018-06-03T16:32:53.645Z,30.49
2018-06-03T16:35:22.469Z,30.67
2018-06-03T16:37:51.482Z,30.56
2018-06-03T16:40:20.283Z,30.47
2018-06-03T16:42:49.280Z,30.51
2018-06-03T16:45:18.495Z,30.43
2018-06-03T16:47:47.740Z,30.45
2018-06-03T16:50:17.121Z,30.45
2018-06-03T16:52:49.088Z,30.21
2018-06-03T16:55:18.579Z,30.19
2018-06-03T16:57:47.690Z,30.19
2018-06-03T17:00:17.022Z,30.22
2018-06-03T17:02:45.938Z,30.11
2018-06-03T17:05:15.193Z,29.93
2018-06-03T17:07:44.443Z,29.67
2018-06-03T17:10:13.898Z,29.91
2018-06-03T17:12:43.356Z,30.01
2018-06-03T17:15:12.777Z,29.92
2018-06-03T17:17:42.677Z,29.92
2018-06-03T17:20:11.534Z,29.48
2018-06-03T17:22:40.473Z,29.48
2018-06-03T17:25:09.660Z,29.18
2018-06-03T17:27:39.252Z,29.10
2018-06-03T17:30:08.356Z,29.14
2018-06-03T17:32:37.165Z,29.11
2018-06-03T17:35:07.208Z,29.01
2018-06-03T17:37:36.361Z,28.74
2018-06-03T17:40:05.677Z,28.71
2018-06-03T17:42:34.269Z,28.70
2018-06-03T17:45:02.915Z,28.66
2018-06-03T17:47:31.610Z,28.61
2018-06-03T17:50:00.920Z,28.58
2018-06-03T17:52:30.582Z,28.60
2018-06-03T17:55:00.163Z,28.62
2018-06-03T17:57:29.304Z,28.62
2018-06-03T17:59:58.328Z,28.72
2018-06-03T18:02:27.923Z,28.69
2018-06-03T18:04:57.380Z,28.67
2018-06-03T18:07:27.323Z,28.67
2018-06-03T18:09:57.174Z,28.67
2018-06-03T18:12:26.497Z,28.63
2018-06-03T18:14:55.648Z,28.69
2018-06-03T18:17:24.693Z,28.69
2018-06-03T18:19:53.866Z,28.64
2018-06-03T18:22:22.964Z,28.62
2018-06-03T18:24:52.908Z,28.45
2018-06-03T18:27:24.133Z,28.31
2018-06-03T18:29:53.715Z,28.13
2018-06-03T18:32:22.507Z,28.06
2018-06-03T18:34:51.184Z,27.96
2018-06-03T18:37:19.911Z,27.75
2018-06-03T18:39:49.101Z,27.62
2018-06-03T18:42:17.922Z,27.39
2018-06-03T18:44:46.688Z,27.37
2018-06-03T18:47:16.053Z,27.23
2018-06-03T18:49:46.532Z,27.16
2018-06-03T18:52:15.492Z,26.98
2018-06-03T18:54:44.831Z,26.95
2018-06-03T18:57:13.681Z,26.80
2018-06-03T18:59:42.560Z,26.78
2018-06-03T19:02:11.761Z,26.74
2018-06-03T19:04:40.645Z,26.59
2018-06-03T19:07:10.441Z,26.50
2018-06-03T19:09:40.169Z,26.39
2018-06-03T19:12:08.815Z,26.44
2018-06-03T19:14:38.260Z,26.36
2018-06-03T19:17:12.475Z,26.27
2018-06-03T19:19:42.056Z,26.19
2018-06-03T19:22:11.484Z,25.97
2018-06-03T19:24:42.656Z,25.98
2018-06-03T19:27:12.114Z,25.88
2018-06-03T19:29:41.227Z,25.78
2018-06-03T19:32:10.787Z,25.76
2018-06-03T19:34:40.439Z,25.68
2018-06-03T19:37:10.231Z,25.59
2018-06-03T19:39:40.637Z,25.48
2018-06-03T19:42:10.152Z,25.43
2018-06-03T19:44:40.151Z,25.30
2018-06-03T19:47:09.808Z,25.31
2018-06-03T19:49:39.080Z,25.26
2018-06-03T19:52:08.476Z,25.19
2018-06-03T19:54:38.367Z,25.14
2018-06-03T19:57:10.768Z,25.07
2018-06-03T19:59:41.580Z,24.99
2018-06-03T20:02:10.820Z,24.95
2018-06-03T20:04:40.228Z,24.85
2018-06-03T20:07:10.156Z,24.85
2018-06-03T20:09:39.567Z,24.79
2018-06-03T20:12:09.555Z,24.74
2018-06-03T20:14:40.305Z,24.67
2018-06-03T20:17:09.725Z,24.56
2018-06-03T20:19:38.943Z,24.50
2018-06-03T20:22:08.767Z,24.47
2018-06-03T20:24:38.385Z,24.47
2018-06-03T20:27:08.301Z,24.42
2018-06-03T20:29:37.735Z,24.44
2018-06-03T20:32:07.364Z,24.38
2018-06-03T20:34:36.891Z,24.35
2018-06-03T20:37:06.758Z,24.33
2018-06-03T20:39:36.293Z,24.25
2018-06-03T20:42:05.764Z,24.18
2018-06-03T20:44:35.184Z,24.12
2018-06-03T20:47:04.732Z,24.09
2018-06-03T20:49:34.514Z,24.02
2018-06-03T20:52:04.162Z,24.01
2018-06-03T20:54:33.824Z,23.98
2018-06-03T20:57:03.463Z,23.91
2018-06-03T20:59:33.530Z,23.85
2018-06-03T21:02:03.449Z,23.79
2018-06-03T21:04:33.187Z,23.74
2018-06-03T21:07:03.195Z,23.70
2018-06-03T21:09:32.850Z,23.68
2018-06-03T21:12:02.662Z,23.60
2018-06-03T21:14:31.980Z,23.55
2018-06-03T21:17:01.894Z,23.49
2018-06-03T21:19:31.388Z,23.41
2018-06-03T21:22:01.230Z,23.34
2018-06-03T21:24:30.701Z,23.24
2018-06-03T21:26:59.978Z,23.23
2018-06-03T21:29:29.901Z,23.19
2018-06-03T21:32:00.159Z,23.16
2018-06-03T21:34:29.087Z,23.15
2018-06-03T21:36:58.237Z,23.14
2018-06-03T21:39:27.468Z,23.11
2018-06-03T21:41:56.666Z,23.09
2018-06-03T21:44:25.478Z,23.04
2018-06-03T21:46:54.670Z,23.02
2018-06-03T21:49:23.705Z,22.95
2018-06-03T21:51:52.844Z,22.97
2018-06-03T21:54:21.746Z,22.95
2018-06-03T21:56:50.665Z,22.91
2018-06-03T21:59:19.696Z,22.85
2018-06-03T22:01:48.848Z,22.82
2018-06-03T22:04:17.717Z,22.76
2018-06-03T22:06:46.574Z,22.62
2018-06-03T22:09:15.561Z,22.62
2018-06-03T22:11:44.390Z,22.59
2018-06-03T22:14:13.174Z,22.58
2018-06-03T22:16:42.549Z,22.54
2018-06-03T22:19:11.532Z,22.51
2018-06-03T22:21:40.587Z,22.44
2018-06-03T22:24:10.500Z,22.40
2018-06-03T22:26:39.336Z,22.37
2018-06-03T22:29:08.608Z,22.34
2018-06-03T22:31:37.529Z,22.30
2018-06-03T22:34:09.388Z,22.28
2018-06-03T22:36:38.656Z,22.24
2018-06-03T22:39:09.503Z,22.20
2018-06-03T22:41:38.616Z,22.08
2018-06-03T22:44:07.456Z,21.91
2018-06-03T22:46:36.236Z,21.95
2018-06-03T22:49:05.335Z,21.88
2018-06-03T22:51:34.152Z,21.83
2018-06-03T22:54:03.080Z,21.83
2018-06-03T22:56:42.748Z,21.77
2018-06-03T22:59:11.649Z,21.74
2018-06-03T23:01:40.632Z,21.67
2018-06-03T23:04:09.518Z,21.63
2018-06-03T23:06:38.340Z,21.59
2018-06-03T23:09:07.104Z,21.52
2018-06-03T23:11:36.421Z,21.48
2018-06-03T23:14:05.380Z,21.39
2018-06-03T23:16:34.209Z,21.43
2018-06-03T23:19:03.094Z,21.35
2018-06-03T23:21:31.962Z,21.33
2018-06-03T23:24:00.779Z,21.25
2018-06-03T23:26:29.732Z,21.29
2018-06-03T23:28:58.539Z,21.26
2018-06-03T23:31:27.385Z,21.26
2018-06-03T23:33:56.201Z,21.25
2018-06-03T23:36:25.188Z,21.20
2018-06-03T23:38:54.001Z,21.13
2018-06-03T23:41:22.739Z,21.09
2018-06-03T23:43:51.487Z,21.09
2018-06-03T23:46:20.415Z,21.05
2018-06-03T23:48:50.008Z,21.04
2018-06-03T23:51:19.404Z,21.03
2018-06-03T23:53:48.272Z,20.95
2018-06-03T23:56:17.873Z,20.92
2018-06-03T23:58:46.696Z,20.89
